aviador You're here:

YBBN Decoded Metar

BRISBANE in AUSTRALIA
Report Time2017-06-26 23:30:00
UTC Time2017-06-27 00:07:37
Flight Rules vfr VFR
Wind210° at 06 kt
W.Decomp.*RWY 19: 5.9 kt HW 0.9 kt RCW
RWY 14: 3.1 kt HW 5.1 kt RCW
W.Rank210° ranks 1
Current wind is below 210° avg. (7.1)
Visibility9999 m
Phenomena:N/A
Clouds:Few 022 Hf
Broken 180 Hf
Expected CloudBase > 2,000 ft AGL from Temp-Dew spread
Ceiling18,000 ft
Temp17°C (ISA +2)
Dew Point12°C (73% RH)
AAT15.5°C
QNH1025 hPa
Density Alt39 ft
Elevation16 ft
Report Wrong Elevation
Raw Report
METAR YBBN 262330Z 21006KT 9999 FEW022 BKN180 17/12 Q1025 NOSIG=

Extra information for YBBN:More info

Metar Taf Metar & Taf Last 4 Metars F.Rules Stats Wind Profile Meteogram Temp Stats Airport Information Weather charts Add Link Nearby VenuesMetar ALERT Operation Metar Decoded Social comments